Time;durP1;ratioP1;P1;durP2;ratioP2;P2;SDS_P1;SDS_P2;PMS_P1;PMS_P2;Temp;Humidity;BMP_temperature;BMP_pressure;BME280_temperature;BME280_humidity;BME280_pressure;Samples;Min_cycle;Max_cycle;Signal;HPM_P1;HPM_P2
2021/12/14 00:01:55;;;;;;;116.30;71.90;;;7.50;98.10;;;;;;5051544;28;20464;-72
2021/12/14 00:05:00;;;;;;;107.15;68.80;;;7.40;97.80;;;;;;5051504;28;20124;-73
2021/12/14 00:08:07;;;;;;;113.55;71.30;;;7.40;97.90;;;;;;5051386;28;20040;-72
2021/12/14 00:11:26;;;;;;;125.32;74.47;;;7.50;97.60;;;;;;5050915;28;20223;-71
2021/12/14 00:18:01;;;;;;;111.22;69.95;;;7.20;97.30;;;;;;5050649;28;20060;-72
2021/12/14 00:21:30;;;;;;;102.00;63.85;;;7.30;97.90;;;;;;5051428;28;20036;-72
2021/12/14 00:24:34;;;;;;;103.93;63.47;;;7.30;97.20;;;;;;5051692;28;20503;-72
2021/12/14 00:27:39;;;;;;;104.13;64.07;;;7.20;97.10;;;;;;5039015;28;20044;-72
2021/12/14 00:30:45;;;;;;;95.28;59.95;;;7.10;97.20;;;;;;5051465;28;20044;-72
2021/12/14 00:33:54;;;;;;;104.53;62.78;;;7.10;97.20;;;;;;5050084;28;20051;-72
2021/12/14 00:36:58;;;;;;;102.88;61.40;;;7.00;97.20;;;;;;5050441;28;20052;-72
2021/12/14 00:40:22;;;;;;;101.75;63.13;;;7.00;97.30;;;;;;5051443;28;20059;-72
2021/12/14 00:43:26;;;;;;;106.72;65.82;;;7.00;97.50;;;;;;5050969;28;20059;-72
2021/12/14 00:46:33;;;;;;;99.65;62.97;;;7.00;97.80;;;;;;5050292;28;20428;-72
2021/12/14 00:49:37;;;;;;;109.10;63.90;;;6.90;97.90;;;;;;5050043;28;20036;-72
2021/12/14 00:52:43;;;;;;;110.05;66.03;;;6.90;98.20;;;;;;5051046;28;20048;-72
2021/12/14 00:55:49;;;;;;;96.72;60.47;;;6.90;98.50;;;;;;5050796;28;20207;-72
2021/12/14 00:58:53;;;;;;;92.82;57.63;;;6.90;98.70;;;;;;5050840;28;20052;-71
2021/12/14 01:02:11;;;;;;;98.25;59.50;;;7.00;98.20;;;;;;5051010;28;20048;-72
2021/12/14 01:05:21;;;;;;;92.90;57.50;;;7.00;98.00;;;;;;5049825;28;20075;-71
2021/12/14 01:08:29;;;;;;;85.95;54.63;;;7.00;98.30;;;;;;5050855;28;20504;-71
2021/12/14 01:11:42;;;;;;;91.78;55.95;;;7.00;97.70;;;;;;5050927;28;20048;-72
2021/12/14 01:15:12;;;;;;;82.18;53.45;;;6.80;97.80;;;;;;5049734;28;20048;-72
2021/12/14 01:28:00;;;;;;;76.43;50.08;;;6.80;97.60;;;;;;5049824;28;20514;-72
2021/12/14 01:31:13;;;;;;;77.38;47.08;;;6.80;97.90;;;;;;5049952;28;20344;-74
2021/12/14 01:34:20;;;;;;;73.30;47.70;;;6.90;98.30;;;;;;5049293;28;20060;-73
2021/12/14 01:37:28;;;;;;;75.63;46.10;;;6.90;97.80;;;;;;5049356;28;20043;-72
2021/12/14 01:44:14;;;;;;;77.60;47.55;;;7.00;97.80;;;;;;5038938;28;20068;-73
2021/12/14 01:47:35;;;;;;;75.45;47.78;;;7.00;98.00;;;;;;5053112;28;20048;-72
2021/12/14 01:51:01;;;;;;;72.22;44.85;;;6.90;97.80;;;;;;5054225;28;20040;-72
2021/12/14 01:54:32;;;;;;;67.78;44.40;;;6.80;98.00;;;;;;5054053;28;20507;-73
2021/12/14 01:57:37;;;;;;;67.47;43.35;;;6.80;97.90;;;;;;5053915;28;20037;-72
2021/12/14 02:00:57;;;;;;;69.95;44.63;;;6.80;98.10;;;;;;5053178;28;20064;-72
2021/12/14 02:04:12;;;;;;;75.50;45.47;;;6.80;97.50;;;;;;5053792;28;20076;-73
2021/12/14 02:07:18;;;;;;;60.22;40.58;;;6.80;97.50;;;;;;5053289;28;20044;-74
2021/12/14 02:10:28;;;;;;;62.13;40.22;;;6.80;97.40;;;;;;5052853;28;20405;-73
2021/12/14 02:13:37;;;;;;;61.55;39.10;;;6.80;96.70;;;;;;5052881;28;20064;-71
2021/12/14 02:16:42;;;;;;;56.88;38.15;;;6.90;97.40;;;;;;5052650;28;20048;-72
2021/12/14 02:19:47;;;;;;;56.47;38.35;;;7.00;97.40;;;;;;5052617;28;20044;-72
2021/12/14 02:22:52;;;;;;;54.83;38.00;;;7.10;97.00;;;;;;5052924;28;20048;-72
2021/12/14 02:25:59;;;;;;;61.30;38.28;;;7.00;96.20;;;;;;5052582;28;20060;-72
2021/12/14 02:29:08;;;;;;;58.65;38.20;;;7.00;96.50;;;;;;5052503;28;20063;-72
2021/12/14 02:32:21;;;;;;;59.50;37.55;;;7.00;96.30;;;;;;5052389;28;20040;-72
2021/12/14 02:35:28;;;;;;;62.00;37.53;;;6.90;96.40;;;;;;5052621;28;20068;-72
2021/12/14 02:38:32;;;;;;;57.30;38.03;;;6.90;96.80;;;;;;5052520;28;20516;-72
2021/12/14 02:41:54;;;;;;;56.63;37.03;;;7.00;96.70;;;;;;5052639;28;20036;-72
2021/12/14 02:45:00;;;;;;;55.10;36.00;;;7.00;96.50;;;;;;5053118;28;20476;-72
2021/12/14 02:48:09;;;;;;;56.78;36.30;;;7.00;96.30;;;;;;5052042;28;20040;-72
2021/12/14 02:51:17;;;;;;;52.17;34.25;;;6.80;96.30;;;;;;5052500;28;20050;-72
2021/12/14 02:54:36;;;;;;;52.88;33.85;;;6.80;96.70;;;;;;5052414;28;20043;-72
2021/12/14 02:57:44;;;;;;;55.55;34.65;;;6.70;96.60;;;;;;5051167;28;20048;-72
2021/12/14 03:00:51;;;;;;;50.45;32.90;;;6.70;96.80;;;;;;5052095;28;20052;-72
2021/12/14 03:04:00;;;;;;;50.45;33.20;;;6.70;97.20;;;;;;5040565;28;20047;-72
2021/12/14 03:07:06;;;;;;;49.50;32.58;;;6.70;97.20;;;;;;5051757;28;20416;-72
2021/12/14 03:13:25;;;;;;;51.78;33.28;;;6.80;96.90;;;;;;5052907;28;20048;-72
2021/12/14 03:16:32;;;;;;;53.47;33.38;;;6.80;96.70;;;;;;5051704;28;20039;-72
2021/12/14 03:19:36;;;;;;;47.47;32.03;;;6.80;96.80;;;;;;5051555;28;20036;-72
2021/12/14 03:22:51;;;;;;;46.15;31.75;;;6.70;96.80;;;;;;5052747;28;20040;-72
2021/12/14 03:25:58;;;;;;;56.15;33.10;;;6.80;97.00;;;;;;5051376;28;20055;-72
2021/12/14 03:29:21;;;;;;;46.63;30.27;;;6.70;96.50;;;;;;5052290;28;20040;-72
2021/12/14 03:32:26;;;;;;;48.85;31.25;;;6.70;97.00;;;;;;5051761;28;20060;-71
2021/12/14 03:35:50;;;;;;;51.80;31.30;;;6.70;96.70;;;;;;5039882;28;20393;-72
2021/12/14 03:39:07;;;;;;;50.28;31.27;;;6.70;97.00;;;;;;5051314;28;20516;-72
2021/12/14 03:42:33;;;;;;;49.90;31.15;;;6.60;96.80;;;;;;5041267;28;20044;-72
2021/12/14 03:45:40;;;;;;;50.40;31.52;;;6.70;97.00;;;;;;5039607;28;20060;-72
2021/12/14 03:48:45;;;;;;;53.45;32.05;;;6.70;96.80;;;;;;5050785;28;20044;-72
2021/12/14 03:51:51;;;;;;;50.53;30.63;;;6.60;97.00;;;;;;5051187;28;20306;-72
2021/12/14 03:54:57;;;;;;;52.25;32.05;;;6.60;97.20;;;;;;5051217;28;20047;-72
2021/12/14 03:58:01;;;;;;;45.65;29.92;;;6.70;97.10;;;;;;5051072;28;20051;-72
2021/12/14 04:01:14;;;;;;;47.33;29.60;;;6.70;97.00;;;;;;5050816;28;20036;-72
2021/12/14 04:04:38;;;;;;;42.67;29.30;;;6.80;96.90;;;;;;5050629;28;20044;-71
2021/12/14 04:07:44;;;;;;;43.05;27.92;;;6.80;96.40;;;;;;5050953;28;20044;-71
2021/12/14 04:10:57;;;;;;;41.90;27.50;;;6.80;96.40;;;;;;5050666;28;20059;-72
2021/12/14 04:14:02;;;;;;;48.65;28.77;;;6.70;95.90;;;;;;5050664;28;20047;-71
2021/12/14 04:17:13;;;;;;;41.38;26.65;;;6.70;95.70;;;;;;5050532;28;20047;-71
2021/12/14 04:20:32;;;;;;;40.10;26.58;;;6.60;95.90;;;;;;5050461;28;20048;-71
2021/12/14 04:23:41;;;;;;;34.97;25.15;;;6.50;96.20;;;;;;5050752;28;20408;-71
2021/12/14 04:26:46;;;;;;;39.13;25.10;;;6.40;96.30;;;;;;5039458;28;20056;-71
2021/12/14 04:29:55;;;;;;;38.50;25.23;;;6.40;96.20;;;;;;5050332;28;20048;-72
2021/12/14 04:33:06;;;;;;;39.35;25.50;;;6.30;96.10;;;;;;5050059;28;20052;-72
2021/12/14 04:36:13;;;;;;;39.83;26.23;;;6.30;96.60;;;;;;5050488;28;20043;-71
2021/12/14 04:53:22;;;;;;;41.58;25.70;;;6.40;97.00;;;;;;5050083;28;20051;-72
2021/12/14 04:56:38;;;;;;;42.20;24.30;;;6.60;96.80;;;;;;5049889;28;20036;-72
2021/12/14 04:59:42;;;;;;;39.60;24.13;;;6.80;96.50;;;;;;5050160;28;20040;-72
2021/12/14 05:02:47;;;;;;;41.20;25.63;;;6.70;95.50;;;;;;5050432;28;20052;-72
2021/12/14 05:06:13;;;;;;;40.67;25.52;;;6.70;96.00;;;;;;5049912;28;20528;-72
2021/12/14 05:09:27;;;;;;;41.55;24.92;;;6.70;96.20;;;;;;5050183;28;20044;-72
2021/12/14 05:12:41;;;;;;;41.33;25.15;;;6.70;96.30;;;;;;5050000;28;20047;-71
2021/12/14 05:15:51;;;;;;;37.25;24.85;;;6.80;96.60;;;;;;5050079;28;20527;-71
2021/12/14 05:19:00;;;;;;;40.72;24.80;;;6.90;95.90;;;;;;5049810;28;20040;-72
2021/12/14 05:22:20;;;;;;;43.15;25.60;;;6.90;96.20;;;;;;5053865;28;20401;-71
2021/12/14 05:25:28;;;;;;;40.97;27.48;;;6.90;96.10;;;;;;5053842;28;20507;-71
2021/12/14 05:28:49;;;;;;;39.53;25.98;;;6.90;96.20;;;;;;5054190;28;20195;-71
2021/12/14 05:32:03;;;;;;;33.92;24.30;;;7.00;96.30;;;;;;5053875;28;20056;-72
2021/12/14 05:35:11;;;;;;;43.50;25.80;;;7.10;96.10;;;;;;5053636;28;20400;-72
2021/12/14 05:38:21;;;;;;;38.85;25.92;;;7.10;95.40;;;;;;5053598;28;20052;-72
2021/12/14 05:44:54;;;;;;;38.28;27.05;;;6.80;96.10;;;;;;5053549;28;20063;-72
2021/12/14 05:48:01;;;;;;;39.30;27.63;;;6.80;96.30;;;;;;5053241;28;20040;-72
2021/12/14 05:51:09;;;;;;;41.78;28.02;;;6.80;96.30;;;;;;5053287;28;20040;-72
2021/12/14 05:54:27;;;;;;;42.15;26.83;;;6.80;96.60;;;;;;5053314;28;20052;-72
2021/12/14 05:57:31;;;;;;;48.83;28.38;;;6.70;96.30;;;;;;5053116;28;20039;-72
2021/12/14 06:00:36;;;;;;;43.60;27.20;;;6.80;96.60;;;;;;5053463;28;20052;-72
2021/12/14 06:03:57;;;;;;;39.80;26.73;;;6.80;96.10;;;;;;5053231;28;20048;-72
2021/12/14 06:07:04;;;;;;;43.30;27.35;;;6.70;96.00;;;;;;5053796;28;20056;-72
2021/12/14 06:10:11;;;;;;;41.92;27.98;;;6.60;96.30;;;;;;5053190;28;20040;-73
2021/12/14 06:13:19;;;;;;;44.72;26.10;;;6.50;96.30;;;;;;5053193;28;20051;-72
2021/12/14 06:16:36;;;;;;;47.25;28.17;;;6.50;96.80;;;;;;5052977;28;20051;-72
2021/12/14 06:19:42;;;;;;;40.15;24.50;;;6.50;96.60;;;;;;5053132;28;20512;-72
2021/12/14 06:22:53;;;;;;;48.55;27.92;;;6.70;95.90;;;;;;5053081;28;20048;-72
2021/12/14 06:26:19;;;;;;;37.65;26.25;;;6.60;95.90;;;;;;5053275;28;20056;-73
2021/12/14 06:29:44;;;;;;;42.63;25.20;;;6.50;96.30;;;;;;5052833;28;20405;-73
2021/12/14 06:33:02;;;;;;;45.17;27.52;;;6.60;96.70;;;;;;5051884;28;20051;-74
2021/12/14 06:36:30;;;;;;;39.63;25.50;;;6.70;96.90;;;;;;5053504;28;20052;-74
2021/12/14 06:39:57;;;;;;;37.40;25.98;;;6.80;96.60;;;;;;5029755;28;20052;-74
2021/12/14 06:43:08;;;;;;;42.70;29.40;;;6.80;96.50;;;;;;5052530;28;20040;-79
2021/12/14 06:46:17;;;;;;;47.10;31.07;;;6.70;96.70;;;;;;5052704;28;20068;-78
2021/12/14 06:49:21;;;;;;;58.88;34.17;;;6.80;97.10;;;;;;5053447;28;20500;-74
2021/12/14 06:52:26;;;;;;;58.83;35.40;;;6.80;96.80;;;;;;5052621;28;20401;-77
2021/12/14 06:55:44;;;;;;;69.88;38.00;;;6.80;96.90;;;;;;5052238;28;20044;-76
2021/12/14 06:59:14;;;;;;;59.30;38.08;;;6.90;97.10;;;;;;5058380;28;20043;-77
2021/12/14 07:02:48;;;;;;;59.00;37.90;;;7.00;97.00;;;;;;5051953;28;20035;-78
2021/12/14 07:06:03;;;;;;;77.07;42.28;;;7.00;96.40;;;;;;5051838;28;20051;-73
2021/12/14 07:09:11;;;;;;;64.95;39.95;;;7.10;96.70;;;;;;5051939;28;20128;-74
2021/12/14 07:12:20;;;;;;;63.58;39.45;;;7.10;97.00;;;;;;5052763;28;20063;-73
2021/12/14 07:15:35;;;;;;;61.55;40.03;;;7.20;96.90;;;;;;5052959;28;20401;-74
2021/12/14 07:18:41;;;;;;;58.83;36.97;;;7.30;96.90;;;;;;5053146;28;20048;-74
2021/12/14 07:21:49;;;;;;;67.85;38.20;;;7.50;96.50;;;;;;5052829;28;20503;-73
2021/12/14 07:25:28;;;;;;;61.10;39.10;;;7.50;96.30;;;;;;5052517;28;20055;-73
2021/12/14 07:28:40;;;;;;;62.47;37.55;;;7.50;96.60;;;;;;5052459;28;20052;-73
2021/12/14 07:31:43;;;;;;;57.83;36.28;;;7.60;96.50;;;;;;5052282;28;20500;-73
2021/12/14 07:34:47;;;;;;;58.15;38.00;;;7.60;96.30;;;;;;5052082;28;20056;-73
2021/12/14 07:37:52;;;;;;;55.22;36.88;;;7.70;96.30;;;;;;5052268;28;20040;-73
2021/12/14 07:41:30;;;;;;;58.00;38.63;;;7.70;95.80;;;;;;5052423;28;20044;-72
2021/12/14 07:44:37;;;;;;;65.00;38.60;;;7.70;96.20;;;;;;5051856;28;20048;-73
2021/12/14 07:47:53;;;;;;;64.35;38.95;;;7.70;96.40;;;;;;5052140;28;20056;-73
2021/12/14 07:50:57;;;;;;;61.67;37.50;;;7.80;96.60;;;;;;5052152;28;20048;-73
2021/12/14 07:54:10;;;;;;;70.07;38.78;;;7.90;96.60;;;;;;5052175;28;20048;-73
2021/12/14 07:57:19;;;;;;;70.03;39.13;;;8.00;96.50;;;;;;5051653;28;20040;-73
2021/12/14 08:00:26;;;;;;;69.32;39.03;;;8.10;96.60;;;;;;5051649;28;20445;-73
2021/12/14 08:03:33;;;;;;;75.75;42.05;;;8.20;96.50;;;;;;5052215;28;20377;-73
2021/12/14 08:06:49;;;;;;;71.28;40.05;;;8.30;96.50;;;;;;5051476;28;20381;-73
2021/12/14 08:09:57;;;;;;;57.13;36.80;;;8.40;96.50;;;;;;5051789;28;20044;-73
2021/12/14 08:13:19;;;;;;;56.95;36.03;;;8.50;96.30;;;;;;5051568;28;20047;-73
2021/12/14 08:16:23;;;;;;;59.67;36.08;;;8.60;96.50;;;;;;5051434;28;20075;-73
2021/12/14 08:19:37;;;;;;;52.00;33.05;;;8.70;96.50;;;;;;5050547;28;20044;-73
2021/12/14 08:22:42;;;;;;;45.42;28.17;;;8.80;96.50;;;;;;5051652;28;20500;-74
2021/12/14 08:25:46;;;;;;;37.00;25.00;;;9.00;96.50;;;;;;5051280;28;20567;-73
2021/12/14 08:28:53;;;;;;;36.58;25.52;;;9.20;96.10;;;;;;5051145;28;20047;-73
2021/12/14 08:32:05;;;;;;;38.17;24.65;;;9.50;95.90;;;;;;5051495;28;20047;-74
2021/12/14 08:35:12;;;;;;;42.58;25.38;;;9.70;96.00;;;;;;5051265;28;20428;-73
2021/12/14 08:38:18;;;;;;;35.75;22.80;;;10.10;94.90;;;;;;5051049;28;20389;-73
2021/12/14 08:41:25;;;;;;;45.10;28.00;;;10.40;94.70;;;;;;5050985;28;20048;-73
2021/12/14 08:44:36;;;;;;;31.92;21.85;;;10.60;94.60;;;;;;5050985;28;20056;-73
2021/12/14 08:47:41;;;;;;;34.42;20.80;;;10.80;94.20;;;;;;5050958;28;20075;-73
2021/12/14 08:51:02;;;;;;;31.35;21.02;;;11.00;94.20;;;;;;5051072;28;20385;-73
2021/12/14 08:54:21;;;;;;;30.83;20.05;;;11.40;94.10;;;;;;5050306;28;20056;-73
2021/12/14 08:57:29;;;;;;;13.73;8.05;;;11.60;94.00;;;;;;5050529;28;20060;-73
2021/12/14 09:00:41;;;;;;;13.18;7.22;;;11.80;92.20;;;;;;5050868;28;20052;-73
2021/12/14 09:03:58;;;;;;;15.02;7.45;;;12.10;90.40;;;;;;5050864;28;20040;-73
2021/12/14 09:07:11;;;;;;;12.50;7.65;;;12.50;89.50;;;;;;5050663;28;20500;-73
2021/12/14 09:10:20;;;;;;;11.32;6.15;;;12.70;90.20;;;;;;5050910;28;20063;-73
2021/12/14 09:13:26;;;;;;;7.10;4.03;;;13.00;87.50;;;;;;5050811;28;20543;-72
2021/12/14 09:16:32;;;;;;;5.47;3.42;;;13.30;84.50;;;;;;5050739;28;20048;-73
2021/12/14 09:19:41;;;;;;;6.93;3.67;;;13.50;83.20;;;;;;5050429;28;20203;-73
2021/12/14 09:22:51;;;;;;;7.22;4.07;;;13.60;83.50;;;;;;5050674;28;20048;-73
2021/12/14 09:25:55;;;;;;;7.95;4.57;;;13.80;84.50;;;;;;5050626;28;20052;-73
2021/12/14 09:29:00;;;;;;;7.90;3.63;;;14.00;84.80;;;;;;5050861;28;20040;-73
2021/12/14 09:32:08;;;;;;;5.07;3.10;;;14.10;82.60;;;;;;5049692;28;20321;-73
2021/12/14 09:35:17;;;;;;;6.63;3.88;;;14.30;80.30;;;;;;5050736;28;20051;-73
2021/12/14 09:38:30;;;;;;;4.75;2.90;;;14.40;81.40;;;;;;5050691;28;20036;-73
2021/12/14 09:41:38;;;;;;;9.45;2.47;;;14.60;78.00;;;;;;5050579;28;20043;-73
2021/12/14 09:44:44;;;;;;;5.57;3.13;;;14.70;77.60;;;;;;5050628;28;20044;-73
2021/12/14 09:47:49;;;;;;;9.50;3.72;;;14.90;78.00;;;;;;5050270;28;20059;-73
2021/12/14 09:50:55;;;;;;;7.35;3.33;;;15.00;79.20;;;;;;5050536;28;20044;-74
2021/12/14 09:54:02;;;;;;;5.93;3.30;;;15.20;76.50;;;;;;5050003;28;20048;-71
2021/12/14 09:57:32;;;;;;;7.13;4.07;;;15.30;78.10;;;;;;5050207;28;20048;-71
2021/12/14 10:00:44;;;;;;;4.78;2.75;;;15.40;76.60;;;;;;5050494;28;20036;-72
2021/12/14 10:03:52;;;;;;;5.68;3.20;;;15.60;76.00;;;;;;5050253;28;20286;-73
2021/12/14 10:06:58;;;;;;;5.95;2.53;;;15.60;74.60;;;;;;5053078;28;20064;-73
2021/12/14 10:10:05;;;;;;;3.20;2.10;;;15.70;74.10;;;;;;5053925;28;20388;-73
2021/12/14 10:13:10;;;;;;;3.55;2.38;;;15.80;74.40;;;;;;5054103;28;20378;-73
2021/12/14 10:16:14;;;;;;;4.22;2.42;;;15.80;75.10;;;;;;5053623;28;20504;-73
2021/12/14 10:19:22;;;;;;;6.82;3.55;;;15.90;73.80;;;;;;5053657;28;20048;-73
2021/12/14 10:22:31;;;;;;;10.77;4.00;;;16.00;73.40;;;;;;5053553;28;20065;-73
2021/12/14 10:25:35;;;;;;;6.05;3.90;;;16.00;74.00;;;;;;5053466;28;20437;-72
2021/12/14 10:28:41;;;;;;;8.30;4.25;;;16.10;74.30;;;;;;5053477;28;20053;-73
2021/12/14 10:31:50;;;;;;;5.80;2.55;;;16.00;73.40;;;;;;5053384;28;20044;-73
2021/12/14 10:34:58;;;;;;;4.70;1.60;;;16.00;72.70;;;;;;5053375;28;20052;-73
2021/12/14 10:38:31;;;;;;;4.55;1.65;;;16.00;71.70;;;;;;5052919;28;20047;-74
2021/12/14 10:44:55;;;;;;;7.20;2.42;;;16.00;73.00;;;;;;5052964;28;20048;-72
2021/12/14 10:48:00;;;;;;;6.38;1.85;;;16.00;72.80;;;;;;5052703;28;20048;-72
2021/12/14 10:51:07;;;;;;;8.60;1.80;;;16.10;72.20;;;;;;5053164;28;20040;-72
2021/12/14 10:54:14;;;;;;;7.45;2.15;;;16.10;72.00;;;;;;5053100;28;20059;-73
2021/12/14 10:57:21;;;;;;;5.05;1.73;;;16.20;72.60;;;;;;5052796;28;20039;-73
2021/12/14 11:00:56;;;;;;;4.90;1.65;;;16.30;72.30;;;;;;5053026;28;20051;-72
2021/12/14 11:04:07;;;;;;;2.00;1.48;;;16.20;71.00;;;;;;5052535;28;20567;-73
2021/12/14 11:07:13;;;;;;;;;;;16.20;71.60;;;;;;5052995;28;20228;-78
2021/12/14 11:10:29;;;;;;;5.85;1.60;;;16.30;71.70;;;;;;5051630;28;20360;-72
2021/12/14 11:14:01;;;;;;;5.30;2.00;;;16.30;70.60;;;;;;5050963;28;20052;-72
2021/12/14 11:20:39;;;;;;;3.85;2.40;;;16.20;72.20;;;;;;5050620;28;19932;-70
2021/12/14 11:23:48;;;;;;;5.15;2.10;;;16.20;71.50;;;;;;5050495;28;20048;-69
2021/12/14 11:26:53;;;;;;;4.63;1.90;;;16.20;71.50;;;;;;5049040;28;20056;-72
2021/12/14 11:30:21;;;;;;;4.50;2.13;;;16.10;71.80;;;;;;5050297;28;20211;-70
2021/12/14 11:33:30;;;;;;;4.38;1.90;;;16.00;72.50;;;;;;5051129;28;20060;-76
2021/12/14 11:36:38;;;;;;;7.13;2.00;;;16.00;72.10;;;;;;5052269;28;20405;-74
2021/12/14 11:39:49;;;;;;;3.30;1.60;;;16.00;72.10;;;;;;5052135;28;20040;-78
2021/12/14 11:43:09;;;;;;;2.85;1.55;;;16.00;71.10;;;;;;5052147;28;20051;-75
2021/12/14 11:46:13;;;;;;;3.88;1.83;;;15.90;72.00;;;;;;5051386;28;20047;-75
2021/12/14 11:49:18;;;;;;;5.25;1.73;;;15.90;72.30;;;;;;5051262;28;20044;-76
2021/12/14 11:53:15;;;;;;;6.57;1.13;;;16.00;72.40;;;;;;5050744;28;20040;-75
2021/12/14 11:56:22;;;;;;;3.38;1.40;;;16.00;70.50;;;;;;5050912;28;20040;-73
2021/12/14 11:59:26;;;;;;;5.20;1.60;;;15.90;72.50;;;;;;5051903;28;20389;-75
2021/12/14 12:02:30;;;;;;;7.07;2.10;;;15.80;73.20;;;;;;5052138;28;20060;-78
2021/12/14 12:05:36;;;;;;;3.72;1.80;;;15.80;72.30;;;;;;5051943;28;20052;-70
2021/12/14 12:12:15;;;;;;;2.65;1.60;;;15.80;71.20;;;;;;5051374;28;20051;-70
2021/12/14 12:15:23;;;;;;;4.80;2.05;;;15.80;71.80;;;;;;5051068;28;20048;-71
2021/12/14 12:18:27;;;;;;;4.30;2.00;;;15.80;71.90;;;;;;5050845;28;20044;-70
2021/12/14 12:21:32;;;;;;;2.42;1.30;;;15.80;72.00;;;;;;5051330;28;20524;-70
2021/12/14 12:24:42;;;;;;;4.70;1.67;;;15.80;71.60;;;;;;5050994;28;20048;-72
2021/12/14 12:28:23;;;;;;;3.15;1.60;;;15.80;72.10;;;;;;5050056;28;20064;-72
2021/12/14 12:31:28;;;;;;;4.63;1.70;;;15.80;70.80;;;;;;5050755;28;20048;-70
2021/12/14 12:34:38;;;;;;;3.58;1.70;;;15.80;71.50;;;;;;5049980;28;20298;-71
2021/12/14 12:37:44;;;;;;;4.28;1.75;;;15.70;72.10;;;;;;5050870;28;20044;-70
2021/12/14 12:40:56;;;;;;;3.25;1.70;;;15.70;72.80;;;;;;5051341;28;20052;-69
2021/12/14 12:44:03;;;;;;;3.53;1.67;;;15.70;71.00;;;;;;5050811;28;20036;-71
2021/12/14 12:47:18;;;;;;;3.08;1.50;;;15.70;71.00;;;;;;5050628;28;20514;-70
2021/12/14 12:50:25;;;;;;;1.90;1.40;;;15.70;70.70;;;;;;5051077;28;20107;-70
2021/12/14 12:53:29;;;;;;;5.18;1.70;;;15.80;69.20;;;;;;5050819;28;20052;-71
2021/12/14 12:56:37;;;;;;;2.45;1.25;;;15.80;68.80;;;;;;5050730;28;20044;-70
2021/12/14 12:59:56;;;;;;;5.70;2.10;;;15.80;69.80;;;;;;5051004;28;20048;-73
2021/12/14 13:03:18;;;;;;;6.97;1.50;;;15.80;69.10;;;;;;5050695;28;20057;-69
2021/12/14 13:06:22;;;;;;;4.00;1.52;;;15.80;68.50;;;;;;5049550;28;20052;-70
2021/12/14 13:09:27;;;;;;;3.25;1.50;;;15.90;69.50;;;;;;5050292;28;20048;-70
2021/12/14 13:13:00;;;;;;;6.53;1.85;;;15.90;68.40;;;;;;5050574;28;20298;-72
2021/12/14 13:16:09;;;;;;;3.25;1.38;;;15.80;68.00;;;;;;5050749;28;20036;-71
2021/12/14 13:19:23;;;;;;;2.00;1.15;;;15.90;68.80;;;;;;5050747;28;20080;-71
2021/12/14 13:22:27;;;;;;;2.78;1.35;;;15.90;69.10;;;;;;5050241;28;20044;-74
2021/12/14 13:25:34;;;;;;;6.68;3.10;;;15.90;70.00;;;;;;5050414;28;20120;-75
2021/12/14 13:28:40;;;;;;;4.97;1.75;;;15.80;69.80;;;;;;5050593;28;20509;-74
2021/12/14 13:32:01;;;;;;;5.35;2.00;;;15.80;70.70;;;;;;5050259;28;20425;-73
2021/12/14 13:35:05;;;;;;;;;;;15.70;71.10;;;;;;5050962;28;20052;-75
2021/12/14 13:38:10;;;;;;;4.75;2.00;;;15.70;70.70;;;;;;5050567;28;19916;-76
2021/12/14 13:41:55;;;;;;;3.00;1.58;;;15.70;70.90;;;;;;5052973;28;20283;-79
2021/12/14 13:45:00;;;;;;;5.05;2.20;;;15.70;71.00;;;;;;5054047;28;20087;-77
2021/12/14 13:48:06;;;;;;;8.20;2.28;;;15.70;71.00;;;;;;5054132;28;20044;-74
2021/12/14 13:51:20;;;;;;;4.05;2.17;;;15.60;70.90;;;;;;5053422;28;20170;-72
2021/12/14 13:54:25;;;;;;;7.18;2.83;;;15.60;71.40;;;;;;5054160;28;20040;-74
2021/12/14 13:57:28;;;;;;;6.45;1.67;;;15.60;72.20;;;;;;5053728;28;20048;-78
2021/12/14 14:00:46;;;;;;;15.65;8.43;;;15.50;71.00;;;;;;5053916;28;20052;-76
2021/12/14 14:03:56;;;;;;;7.13;3.92;;;15.50;70.60;;;;;;5053843;28;20048;-78
2021/12/14 14:07:00;;;;;;;11.45;8.38;;;15.40;72.30;;;;;;5053570;28;20052;-80
2021/12/14 14:10:08;;;;;;;11.15;7.45;;;15.30;72.40;;;;;;5053887;28;20519;-72
2021/12/14 14:13:24;;;;;;;4.65;2.17;;;15.30;72.90;;;;;;5053979;28;20055;-74
2021/12/14 14:16:41;;;;;;;3.80;1.60;;;15.30;70.10;;;;;;5053419;28;20052;-74
2021/12/14 14:19:57;;;;;;;7.35;2.03;;;15.30;69.60;;;;;;5053310;28;20079;-77
2021/12/14 14:23:21;;;;;;;5.15;2.00;;;15.30;70.00;;;;;;5053733;28;20042;-72
2021/12/14 14:26:30;;;;;;;9.55;4.47;;;15.30;70.90;;;;;;5053613;28;20211;-85
2021/12/14 14:29:44;;;;;;;3.80;1.17;;;15.40;70.80;;;;;;5041055;28;20040;-76
2021/12/14 14:32:58;;;;;;;7.07;3.33;;;15.30;69.30;;;;;;5053175;28;20393;-74
2021/12/14 14:36:09;;;;;;;11.23;3.17;;;15.30;70.90;;;;;;5053106;28;20048;-74
2021/12/14 14:39:15;;;;;;;9.70;2.78;;;15.30;71.10;;;;;;5053405;28;20044;-74
2021/12/14 14:42:28;;;;;;;4.13;2.20;;;15.20;70.00;;;;;;5053332;28;20064;-78
2021/12/14 14:45:32;;;;;;;2.45;1.30;;;15.20;70.90;;;;;;5053548;28;20528;-74
2021/12/14 14:48:36;;;;;;;3.17;1.45;;;15.20;68.90;;;;;;5053333;28;20507;-76
2021/12/14 14:51:57;;;;;;;4.60;1.30;;;15.20;69.60;;;;;;5052373;28;20047;-72
2021/12/14 14:55:05;;;;;;;2.70;1.37;;;15.20;69.80;;;;;;5052977;28;20048;-76
2021/12/14 14:58:13;;;;;;;7.97;3.10;;;15.10;70.00;;;;;;5052908;28;20055;-75
2021/12/14 15:01:23;;;;;;;16.30;4.97;;;15.10;69.90;;;;;;5052945;28;20370;-73
2021/12/14 15:04:27;;;;;;;11.48;2.55;;;15.10;70.20;;;;;;5052928;28;20044;-76
2021/12/14 15:07:55;;;;;;;4.22;2.03;;;15.10;69.50;;;;;;5040261;28;20048;-72
2021/12/14 15:10:59;;;;;;;6.18;2.13;;;15.00;69.60;;;;;;5052645;28;20043;-73
2021/12/14 15:14:09;;;;;;;8.00;2.70;;;15.00;69.60;;;;;;5052663;28;20047;-70
2021/12/14 15:17:22;;;;;;;4.63;2.08;;;14.90;69.90;;;;;;5052448;28;20040;-78
2021/12/14 15:20:35;;;;;;;6.65;2.83;;;14.90;70.00;;;;;;5051666;28;20075;-74
2021/12/14 15:23:39;;;;;;;12.50;4.63;;;14.90;71.50;;;;;;5052449;28;20055;-75
2021/12/14 15:27:06;;;;;;;8.88;2.40;;;14.80;71.10;;;;;;5052344;28;20056;-75
2021/12/14 15:30:14;;;;;;;4.22;2.53;;;14.80;70.20;;;;;;5053313;28;20614;-74
2021/12/14 15:33:21;;;;;;;7.30;4.00;;;14.80;70.80;;;;;;5055412;28;20405;-74
2021/12/14 15:36:27;;;;;;;9.02;3.75;;;14.70;71.10;;;;;;5054887;28;20488;-80
2021/12/14 15:39:40;;;;;;;11.32;4.88;;;14.70;70.80;;;;;;5054975;28;20107;-73
2021/12/14 15:42:46;;;;;;;13.63;4.03;;;14.60;71.90;;;;;;5051418;28;20039;-75
2021/12/14 15:46:16;;;;;;;6.50;3.50;;;14.60;70.80;;;;;;5051859;28;20067;-77
2021/12/14 15:49:32;;;;;;;9.32;4.28;;;14.60;70.60;;;;;;5054777;28;20297;-73
2021/12/14 15:52:36;;;;;;;5.25;3.40;;;14.60;70.40;;;;;;5051900;28;20047;-73
2021/12/14 15:55:40;;;;;;;5.95;2.72;;;14.50;70.20;;;;;;5051937;28;20047;-74
2021/12/14 15:58:49;;;;;;;11.07;3.20;;;14.50;70.30;;;;;;5051456;28;20397;-79
2021/12/14 16:02:00;;;;;;;8.98;6.15;;;14.50;70.60;;;;;;5051735;28;20043;-78
2021/12/14 16:05:11;;;;;;;7.78;4.07;;;14.40;70.80;;;;;;5051549;28;20048;-81
2021/12/14 16:08:20;;;;;;;16.50;8.60;;;14.50;70.30;;;;;;5051370;28;20048;-75
2021/12/14 16:11:44;;;;;;;9.60;5.30;;;14.40;70.60;;;;;;5051198;28;20373;-78
2021/12/14 16:15:07;;;;;;;6.75;3.72;;;14.40;70.90;;;;;;5051702;28;20052;-78
2021/12/14 16:18:16;;;;;;;11.02;4.35;;;14.40;70.60;;;;;;5051414;28;20055;-76
2021/12/14 16:21:23;;;;;;;7.68;2.95;;;14.30;70.50;;;;;;5051308;28;20044;-77
2021/12/14 16:24:28;;;;;;;6.68;3.75;;;14.30;70.40;;;;;;5051517;28;20044;-76
2021/12/14 16:27:32;;;;;;;8.02;4.50;;;14.40;70.60;;;;;;5051031;28;20408;-74
2021/12/14 16:30:59;;;;;;;8.07;4.20;;;14.30;71.00;;;;;;5050367;28;20048;-74
2021/12/14 16:34:18;;;;;;;10.70;6.03;;;14.30;71.80;;;;;;5051072;28;20531;-76
2021/12/14 16:37:22;;;;;;;9.02;6.45;;;14.30;72.00;;;;;;5050885;28;20040;-74
2021/12/14 16:40:26;;;;;;;12.05;7.45;;;14.20;72.30;;;;;;5050867;28;20290;-76
2021/12/14 16:43:40;;;;;;;15.35;7.50;;;14.10;72.80;;;;;;5050991;28;20044;-76
2021/12/14 16:46:48;;;;;;;15.07;10.10;;;14.10;73.30;;;;;;5050837;28;20039;-74
2021/12/14 16:50:16;;;;;;;21.17;6.80;;;14.10;73.50;;;;;;5051139;28;20048;-78
2021/12/14 16:53:21;;;;;;;37.33;18.02;;;14.00;73.90;;;;;;5050924;28;20048;-78
2021/12/14 16:56:28;;;;;;;13.13;7.38;;;14.00;74.40;;;;;;5051794;28;20051;-76
2021/12/14 16:59:40;;;;;;;14.93;8.68;;;13.90;75.00;;;;;;5051770;28;20044;-84
2021/12/14 17:02:45;;;;;;;13.95;6.32;;;13.90;75.30;;;;;;5050919;28;20044;-81
2021/12/14 17:05:59;;;;;;;8.88;6.78;;;13.80;75.70;;;;;;5050451;28;20048;-74
2021/12/14 17:09:07;;;;;;;12.80;6.75;;;13.80;74.50;;;;;;5050212;28;20052;-79
2021/12/14 17:12:16;;;;;;;13.07;9.05;;;13.80;74.70;;;;;;5051472;28;20120;-81
2021/12/14 17:15:26;;;;;;;9.60;5.30;;;13.80;75.60;;;;;;5051111;28;20547;-78